Fraser Lake, Canada
Current Conditions -  °F | °C
As of 2:00 PM on Wednesday 22 Oct 2014 (Local Time) from CYXS Reporting Station
Scattered Clouds Scattered Clouds  
Wind Chill: 52°   Ceiling: Unl
Heat Index: 52°   Visibility: 9mi
Dew Point: 37°   Wind: 5mph
Humidity: 58%   Direction: 150°SSE
Pressure: 29.53"   Gusts: NA
Location:  54.05°N, 124.78°W
Report Text: CYXS 222100Z AUTO 15004KT 020V180 9SM SCT029 11/03 A2953 RMK SLP011 DENSITY ALT 2700FT
Loading
Personal Weather Stations






























Interactive Weather Map
Tropical Storm Tracking
New forecast layout! Learn more

10-Day Weather Forecast

Advertisements
Track Severe Weather on mobile